aviador You're here:

SBFL Decoded Metar

FLORIANOPOLIS in BRAZIL
Report Time2017-11-24 20:00:00
UTC Time2017-11-24 20:18:27
Flight Rules vfr VFR
Wind350° at 08 kt
W.Decomp.*RWY 03: 7.5 kt HW 2.9 kt LCW
RWY 32: 5.2 kt HW 6.0 kt RCW
W.Rank350° ranks 2
Current wind is below 350° avg. (8.2)
Visibility9999 m
Phenomena:N/A
Clouds:Few 035 Hf
Expected CloudBase > 2,400 ft AGL from Temp-Dew spread
CeilingNone
Temp26°C (ISA +11)
Dew Point20°C (70% RH)
QNH1012 hPa
Density Alt1,634 ft
Elevation16 ft
Report Wrong Elevation
Raw Report
SBFL 242000Z 35008KT 9999 FEW035 26/20 Q1012=

Extra information for SBFL:More info

Metar Taf Metar & Taf Last 4 Metars F.Rules Stats Wind Profile Meteogram Temp Stats Airport Information Weather charts Add Link Nearby VenuesMetar ALERT Operation Metar Decoded Social comments